sensor_id;sensor_type;location;lat;lon;timestamp;P1;durP1;ratioP1;P2;durP2;ratioP2
55461;SDS011;41327;45.102;20.624;2022-10-31T00:01:01;81.68;;;32.08;;
55461;SDS011;41327;45.102;20.624;2022-10-31T00:03:26;73.47;;;32.85;;
55461;SDS011;41327;45.102;20.624;2022-10-31T00:05:52;76.78;;;33.13;;
55461;SDS011;41327;45.102;20.624;2022-10-31T00:08:18;76.05;;;31.83;;
55461;SDS011;41327;45.102;20.624;2022-10-31T00:10:44;79.05;;;32.35;;
55461;SDS011;41327;45.102;20.624;2022-10-31T00:13:10;83.15;;;33.10;;
55461;SDS011;41327;45.102;20.624;2022-10-31T00:15:37;85.28;;;31.73;;
55461;SDS011;41327;45.102;20.624;2022-10-31T00:18:03;75.45;;;32.25;;
55461;SDS011;41327;45.102;20.624;2022-10-31T00:20:29;91.90;;;34.90;;
55461;SDS011;41327;45.102;20.624;2022-10-31T00:22:58;71.82;;;30.30;;
55461;SDS011;41327;45.102;20.624;2022-10-31T00:25:24;76.18;;;32.08;;
55461;SDS011;41327;45.102;20.624;2022-10-31T00:27:50;82.22;;;32.15;;
55461;SDS011;41327;45.102;20.624;2022-10-31T00:30:16;90.13;;;33.08;;
55461;SDS011;41327;45.102;20.624;2022-10-31T00:32:41;85.78;;;31.98;;
55461;SDS011;41327;45.102;20.624;2022-10-31T00:35:07;81.53;;;32.10;;
55461;SDS011;41327;45.102;20.624;2022-10-31T00:37:32;78.13;;;31.55;;
55461;SDS011;41327;45.102;20.624;2022-10-31T00:39:58;83.82;;;31.25;;
55461;SDS011;41327;45.102;20.624;2022-10-31T00:42:24;83.93;;;28.75;;
55461;SDS011;41327;45.102;20.624;2022-10-31T00:44:49;83.80;;;30.10;;
55461;SDS011;41327;45.102;20.624;2022-10-31T00:47:15;83.18;;;28.73;;
55461;SDS011;41327;45.102;20.624;2022-10-31T00:49:40;86.05;;;30.38;;
55461;SDS011;41327;45.102;20.624;2022-10-31T00:52:06;84.47;;;30.23;;
55461;SDS011;41327;45.102;20.624;2022-10-31T00:54:31;79.97;;;30.58;;
55461;SDS011;41327;45.102;20.624;2022-10-31T00:56:57;102.97;;;33.17;;
55461;SDS011;41327;45.102;20.624;2022-10-31T00:59:22;103.80;;;33.13;;
55461;SDS011;41327;45.102;20.624;2022-10-31T01:01:48;81.78;;;29.40;;
55461;SDS011;41327;45.102;20.624;2022-10-31T01:04:13;85.10;;;29.33;;
55461;SDS011;41327;45.102;20.624;2022-10-31T01:06:39;83.25;;;29.17;;
55461;SDS011;41327;45.102;20.624;2022-10-31T01:09:04;84.22;;;28.60;;
55461;SDS011;41327;45.102;20.624;2022-10-31T01:11:30;81.00;;;29.50;;
55461;SDS011;41327;45.102;20.624;2022-10-31T01:13:55;86.18;;;31.05;;
55461;SDS011;41327;45.102;20.624;2022-10-31T01:16:22;89.05;;;31.25;;
55461;SDS011;41327;45.102;20.624;2022-10-31T01:18:49;85.97;;;30.35;;
55461;SDS011;41327;45.102;20.624;2022-10-31T01:21:17;84.20;;;28.58;;
55461;SDS011;41327;45.102;20.624;2022-10-31T01:23:44;79.82;;;29.27;;
55461;SDS011;41327;45.102;20.624;2022-10-31T01:26:11;86.72;;;30.20;;
55461;SDS011;41327;45.102;20.624;2022-10-31T01:28:45;94.85;;;29.90;;
55461;SDS011;41327;45.102;20.624;2022-10-31T01:31:14;102.93;;;30.67;;
55461;SDS011;41327;45.102;20.624;2022-10-31T01:33:40;93.82;;;30.30;;
55461;SDS011;41327;45.102;20.624;2022-10-31T01:36:16;88.03;;;28.58;;
55461;SDS011;41327;45.102;20.624;2022-10-31T01:38:45;80.82;;;28.48;;
55461;SDS011;41327;45.102;20.624;2022-10-31T01:41:12;74.18;;;27.50;;
55461;SDS011;41327;45.102;20.624;2022-10-31T01:46:43;81.20;;;29.08;;
55461;SDS011;41327;45.102;20.624;2022-10-31T01:49:18;83.70;;;26.58;;
55461;SDS011;41327;45.102;20.624;2022-10-31T01:52:04;86.80;;;28.88;;
55461;SDS011;41327;45.102;20.624;2022-10-31T01:54:36;90.45;;;30.45;;
55461;SDS011;41327;45.102;20.624;2022-10-31T01:57:05;84.10;;;29.60;;
55461;SDS011;41327;45.102;20.624;2022-10-31T01:59:33;76.85;;;28.58;;
55461;SDS011;41327;45.102;20.624;2022-10-31T02:02:00;75.57;;;26.10;;
55461;SDS011;41327;45.102;20.624;2022-10-31T02:04:25;79.28;;;27.60;;
55461;SDS011;41327;45.102;20.624;2022-10-31T02:07:02;73.55;;;28.02;;
55461;SDS011;41327;45.102;20.624;2022-10-31T02:09:30;77.03;;;27.98;;
55461;SDS011;41327;45.102;20.624;2022-10-31T02:11:57;75.32;;;27.60;;
55461;SDS011;41327;45.102;20.624;2022-10-31T02:14:25;70.15;;;26.63;;
55461;SDS011;41327;45.102;20.624;2022-10-31T02:16:52;68.68;;;26.10;;
55461;SDS011;41327;45.102;20.624;2022-10-31T02:19:21;74.60;;;29.05;;
55461;SDS011;41327;45.102;20.624;2022-10-31T02:27:14;70.50;;;25.55;;
55461;SDS011;41327;45.102;20.624;2022-10-31T02:44:16;68.32;;;24.48;;
55461;SDS011;41327;45.102;20.624;2022-10-31T02:46:49;72.80;;;24.50;;
55461;SDS011;41327;45.102;20.624;2022-10-31T02:49:27;74.35;;;23.15;;
55461;SDS011;41327;45.102;20.624;2022-10-31T02:51:56;77.20;;;25.02;;
55461;SDS011;41327;45.102;20.624;2022-10-31T02:54:22;69.78;;;24.30;;
55461;SDS011;41327;45.102;20.624;2022-10-31T02:56:50;66.80;;;24.08;;
55461;SDS011;41327;45.102;20.624;2022-10-31T02:59:16;75.43;;;24.45;;
55461;SDS011;41327;45.102;20.624;2022-10-31T03:07:19;74.47;;;22.52;;
55461;SDS011;41327;45.102;20.624;2022-10-31T03:09:55;77.00;;;23.45;;
55461;SDS011;41327;45.102;20.624;2022-10-31T03:12:26;86.05;;;24.45;;
55461;SDS011;41327;45.102;20.624;2022-10-31T03:15:02;83.03;;;24.20;;
55461;SDS011;41327;45.102;20.624;2022-10-31T03:20:33;75.93;;;23.70;;
55461;SDS011;41327;45.102;20.624;2022-10-31T03:23:03;72.60;;;23.88;;
55461;SDS011;41327;45.102;20.624;2022-10-31T03:25:30;79.88;;;24.40;;
55461;SDS011;41327;45.102;20.624;2022-10-31T03:27:57;62.03;;;23.80;;
55461;SDS011;41327;45.102;20.624;2022-10-31T03:30:24;57.63;;;23.33;;
55461;SDS011;41327;45.102;20.624;2022-10-31T03:32:51;57.40;;;21.40;;
55461;SDS011;41327;45.102;20.624;2022-10-31T03:35:20;61.70;;;22.13;;
55461;SDS011;41327;45.102;20.624;2022-10-31T03:37:49;60.35;;;22.40;;
55461;SDS011;41327;45.102;20.624;2022-10-31T03:40:18;70.40;;;24.02;;
55461;SDS011;41327;45.102;20.624;2022-10-31T03:42:46;69.95;;;25.23;;
55461;SDS011;41327;45.102;20.624;2022-10-31T03:45:21;82.53;;;26.10;;
55461;SDS011;41327;45.102;20.624;2022-10-31T03:47:49;74.10;;;25.23;;
55461;SDS011;41327;45.102;20.624;2022-10-31T03:50:15;67.85;;;23.88;;
55461;SDS011;41327;45.102;20.624;2022-10-31T03:57:57;73.22;;;26.30;;
55461;SDS011;41327;45.102;20.624;2022-10-31T04:00:25;70.35;;;25.98;;
55461;SDS011;41327;45.102;20.624;2022-10-31T04:03:01;72.47;;;26.20;;
55461;SDS011;41327;45.102;20.624;2022-10-31T04:05:29;85.38;;;31.52;;
55461;SDS011;41327;45.102;20.624;2022-10-31T04:07:55;93.05;;;35.20;;
55461;SDS011;41327;45.102;20.624;2022-10-31T04:10:22;82.55;;;32.40;;
55461;SDS011;41327;45.102;20.624;2022-10-31T04:12:54;93.93;;;33.15;;
55461;SDS011;41327;45.102;20.624;2022-10-31T04:15:23;92.40;;;35.03;;
55461;SDS011;41327;45.102;20.624;2022-10-31T04:17:49;95.75;;;38.53;;
55461;SDS011;41327;45.102;20.624;2022-10-31T04:20:16;106.50;;;40.78;;
55461;SDS011;41327;45.102;20.624;2022-10-31T04:22:42;109.40;;;39.85;;
55461;SDS011;41327;45.102;20.624;2022-10-31T04:25:08;105.55;;;38.60;;
55461;SDS011;41327;45.102;20.624;2022-10-31T04:27:38;99.95;;;39.95;;
55461;SDS011;41327;45.102;20.624;2022-10-31T04:30:09;112.13;;;43.95;;
55461;SDS011;41327;45.102;20.624;2022-10-31T04:32:35;120.93;;;48.22;;
55461;SDS011;41327;45.102;20.624;2022-10-31T04:35:01;144.68;;;57.05;;
55461;SDS011;41327;45.102;20.624;2022-10-31T04:37:27;148.88;;;57.10;;
55461;SDS011;41327;45.102;20.624;2022-10-31T04:39:52;161.85;;;61.65;;
55461;SDS011;41327;45.102;20.624;2022-10-31T04:42:21;188.05;;;66.05;;
55461;SDS011;41327;45.102;20.624;2022-10-31T04:44:47;172.55;;;70.47;;
55461;SDS011;41327;45.102;20.624;2022-10-31T04:47:12;180.02;;;77.03;;
55461;SDS011;41327;45.102;20.624;2022-10-31T04:49:38;197.07;;;82.43;;
55461;SDS011;41327;45.102;20.624;2022-10-31T04:52:04;194.05;;;85.22;;
55461;SDS011;41327;45.102;20.624;2022-10-31T04:54:30;200.23;;;86.43;;
55461;SDS011;41327;45.102;20.624;2022-10-31T04:56:56;137.52;;;53.45;;
55461;SDS011;41327;45.102;20.624;2022-10-31T04:59:22;134.65;;;50.15;;
55461;SDS011;41327;45.102;20.624;2022-10-31T05:01:48;129.77;;;53.45;;
55461;SDS011;41327;45.102;20.624;2022-10-31T05:04:15;131.80;;;49.58;;
55461;SDS011;41327;45.102;20.624;2022-10-31T05:06:45;130.52;;;55.10;;
55461;SDS011;41327;45.102;20.624;2022-10-31T05:09:11;129.43;;;53.80;;
55461;SDS011;41327;45.102;20.624;2022-10-31T05:11:37;133.75;;;53.30;;
55461;SDS011;41327;45.102;20.624;2022-10-31T05:14:03;130.27;;;62.30;;
55461;SDS011;41327;45.102;20.624;2022-10-31T05:16:28;130.88;;;57.90;;
55461;SDS011;41327;45.102;20.624;2022-10-31T05:18:54;135.68;;;59.65;;
55461;SDS011;41327;45.102;20.624;2022-10-31T05:21:20;124.47;;;54.50;;
55461;SDS011;41327;45.102;20.624;2022-10-31T05:23:45;130.77;;;60.92;;
55461;SDS011;41327;45.102;20.624;2022-10-31T05:26:15;140.45;;;64.18;;
55461;SDS011;41327;45.102;20.624;2022-10-31T05:28:45;134.52;;;62.33;;
55461;SDS011;41327;45.102;20.624;2022-10-31T05:31:11;127.90;;;57.55;;
55461;SDS011;41327;45.102;20.624;2022-10-31T05:33:36;140.10;;;61.97;;
55461;SDS011;41327;45.102;20.624;2022-10-31T05:36:02;152.18;;;73.00;;
55461;SDS011;41327;45.102;20.624;2022-10-31T05:38:28;158.23;;;72.75;;
55461;SDS011;41327;45.102;20.624;2022-10-31T05:40:54;140.63;;;68.18;;
55461;SDS011;41327;45.102;20.624;2022-10-31T05:43:22;209.05;;;102.68;;
55461;SDS011;41327;45.102;20.624;2022-10-31T05:45:51;168.80;;;82.50;;
55461;SDS011;41327;45.102;20.624;2022-10-31T05:48:17;166.45;;;77.22;;
55461;SDS011;41327;45.102;20.624;2022-10-31T05:50:43;163.43;;;80.18;;
55461;SDS011;41327;45.102;20.624;2022-10-31T05:53:08;173.50;;;78.88;;
55461;SDS011;41327;45.102;20.624;2022-10-31T05:55:34;173.60;;;81.07;;
55461;SDS011;41327;45.102;20.624;2022-10-31T05:58:00;172.30;;;80.65;;
55461;SDS011;41327;45.102;20.624;2022-10-31T06:00:26;172.63;;;85.13;;
55461;SDS011;41327;45.102;20.624;2022-10-31T06:03:02;187.55;;;86.95;;
55461;SDS011;41327;45.102;20.624;2022-10-31T06:05:29;227.30;;;110.25;;
55461;SDS011;41327;45.102;20.624;2022-10-31T06:07:55;210.02;;;105.90;;
55461;SDS011;41327;45.102;20.624;2022-10-31T06:10:21;258.27;;;121.20;;
55461;SDS011;41327;45.102;20.624;2022-10-31T06:12:46;279.30;;;129.70;;
55461;SDS011;41327;45.102;20.624;2022-10-31T06:15:12;276.35;;;132.18;;
55461;SDS011;41327;45.102;20.624;2022-10-31T06:17:38;276.52;;;134.48;;
55461;SDS011;41327;45.102;20.624;2022-10-31T06:20:04;241.70;;;120.65;;
55461;SDS011;41327;45.102;20.624;2022-10-31T06:22:30;230.30;;;107.40;;
55461;SDS011;41327;45.102;20.624;2022-10-31T06:24:56;261.77;;;119.00;;
55461;SDS011;41327;45.102;20.624;2022-10-31T06:27:21;261.00;;;124.90;;
55461;SDS011;41327;45.102;20.624;2022-10-31T06:29:47;258.38;;;126.00;;
55461;SDS011;41327;45.102;20.624;2022-10-31T06:32:13;297.83;;;152.38;;
55461;SDS011;41327;45.102;20.624;2022-10-31T06:34:39;299.52;;;150.30;;
55461;SDS011;41327;45.102;20.624;2022-10-31T06:37:06;297.63;;;140.82;;
55461;SDS011;41327;45.102;20.624;2022-10-31T06:39:32;268.88;;;130.82;;
55461;SDS011;41327;45.102;20.624;2022-10-31T06:41:58;257.05;;;126.18;;
55461;SDS011;41327;45.102;20.624;2022-10-31T06:44:23;259.98;;;124.72;;
55461;SDS011;41327;45.102;20.624;2022-10-31T06:46:49;256.98;;;121.80;;
55461;SDS011;41327;45.102;20.624;2022-10-31T06:49:14;247.52;;;115.20;;
55461;SDS011;41327;45.102;20.624;2022-10-31T06:51:40;242.85;;;117.93;;
55461;SDS011;41327;45.102;20.624;2022-10-31T06:54:05;238.13;;;109.82;;
55461;SDS011;41327;45.102;20.624;2022-10-31T06:56:31;225.38;;;105.80;;
55461;SDS011;41327;45.102;20.624;2022-10-31T06:58:56;234.00;;;109.38;;
55461;SDS011;41327;45.102;20.624;2022-10-31T07:01:22;283.92;;;134.07;;
55461;SDS011;41327;45.102;20.624;2022-10-31T07:03:47;314.08;;;163.73;;
55461;SDS011;41327;45.102;20.624;2022-10-31T07:06:13;297.00;;;149.55;;
55461;SDS011;41327;45.102;20.624;2022-10-31T07:08:38;268.95;;;132.93;;
55461;SDS011;41327;45.102;20.624;2022-10-31T07:11:04;252.88;;;121.65;;
55461;SDS011;41327;45.102;20.624;2022-10-31T07:13:29;261.33;;;122.40;;
55461;SDS011;41327;45.102;20.624;2022-10-31T07:15:59;291.13;;;139.88;;
55461;SDS011;41327;45.102;20.624;2022-10-31T07:18:27;290.27;;;142.40;;
55461;SDS011;41327;45.102;20.624;2022-10-31T07:20:52;300.95;;;142.23;;
55461;SDS011;41327;45.102;20.624;2022-10-31T07:23:18;310.55;;;148.63;;
55461;SDS011;41327;45.102;20.624;2022-10-31T07:25:43;364.45;;;183.43;;
55461;SDS011;41327;45.102;20.624;2022-10-31T07:28:09;372.35;;;194.65;;
55461;SDS011;41327;45.102;20.624;2022-10-31T07:30:35;379.67;;;193.50;;
55461;SDS011;41327;45.102;20.624;2022-10-31T07:33:01;347.90;;;170.35;;
55461;SDS011;41327;45.102;20.624;2022-10-31T07:35:28;322.38;;;155.38;;
55461;SDS011;41327;45.102;20.624;2022-10-31T07:37:54;311.50;;;141.73;;
55461;SDS011;41327;45.102;20.624;2022-10-31T07:40:20;303.38;;;140.75;;
55461;SDS011;41327;45.102;20.624;2022-10-31T07:42:46;331.02;;;159.25;;
55461;SDS011;41327;45.102;20.624;2022-10-31T07:45:15;282.80;;;128.82;;
55461;SDS011;41327;45.102;20.624;2022-10-31T07:47:43;258.08;;;119.25;;
55461;SDS011;41327;45.102;20.624;2022-10-31T07:50:17;259.90;;;123.22;;
55461;SDS011;41327;45.102;20.624;2022-10-31T07:52:44;260.38;;;122.22;;
55461;SDS011;41327;45.102;20.624;2022-10-31T07:55:09;247.77;;;114.97;;
55461;SDS011;41327;45.102;20.624;2022-10-31T07:57:35;269.13;;;123.38;;
55461;SDS011;41327;45.102;20.624;2022-10-31T08:00:05;306.30;;;146.73;;
55461;SDS011;41327;45.102;20.624;2022-10-31T08:02:32;292.73;;;134.32;;
55461;SDS011;41327;45.102;20.624;2022-10-31T08:04:57;277.05;;;128.57;;
55461;SDS011;41327;45.102;20.624;2022-10-31T08:07:25;284.90;;;122.15;;
55461;SDS011;41327;45.102;20.624;2022-10-31T08:09:50;261.05;;;115.80;;
55461;SDS011;41327;45.102;20.624;2022-10-31T08:12:16;265.48;;;114.93;;
55461;SDS011;41327;45.102;20.624;2022-10-31T08:14:42;246.02;;;110.05;;
55461;SDS011;41327;45.102;20.624;2022-10-31T08:17:08;240.93;;;106.20;;
55461;SDS011;41327;45.102;20.624;2022-10-31T08:19:34;260.17;;;111.78;;
55461;SDS011;41327;45.102;20.624;2022-10-31T08:21:59;273.60;;;124.63;;
55461;SDS011;41327;45.102;20.624;2022-10-31T08:24:25;274.35;;;125.63;;
55461;SDS011;41327;45.102;20.624;2022-10-31T08:26:50;272.77;;;119.28;;
55461;SDS011;41327;45.102;20.624;2022-10-31T08:29:16;273.40;;;118.50;;
55461;SDS011;41327;45.102;20.624;2022-10-31T08:31:42;284.27;;;120.47;;
55461;SDS011;41327;45.102;20.624;2022-10-31T08:34:08;291.25;;;118.63;;
55461;SDS011;41327;45.102;20.624;2022-10-31T08:36:33;272.40;;;114.88;;
55461;SDS011;41327;45.102;20.624;2022-10-31T08:38:59;275.23;;;116.72;;
55461;SDS011;41327;45.102;20.624;2022-10-31T08:41:25;273.05;;;117.28;;
55461;SDS011;41327;45.102;20.624;2022-10-31T08:43:50;269.52;;;119.53;;
55461;SDS011;41327;45.102;20.624;2022-10-31T08:46:16;266.98;;;115.45;;
55461;SDS011;41327;45.102;20.624;2022-10-31T08:48:42;262.05;;;117.95;;
55461;SDS011;41327;45.102;20.624;2022-10-31T08:51:08;282.52;;;122.63;;
55461;SDS011;41327;45.102;20.624;2022-10-31T08:53:33;263.35;;;120.63;;
55461;SDS011;41327;45.102;20.624;2022-10-31T08:55:59;235.88;;;103.65;;
55461;SDS011;41327;45.102;20.624;2022-10-31T08:58:24;240.55;;;102.35;;
55461;SDS011;41327;45.102;20.624;2022-10-31T09:00:51;200.10;;;91.22;;
55461;SDS011;41327;45.102;20.624;2022-10-31T09:03:21;219.52;;;90.97;;
55461;SDS011;41327;45.102;20.624;2022-10-31T09:05:48;199.48;;;87.18;;
55461;SDS011;41327;45.102;20.624;2022-10-31T09:08:14;204.07;;;86.47;;
55461;SDS011;41327;45.102;20.624;2022-10-31T09:10:40;182.68;;;77.45;;
55461;SDS011;41327;45.102;20.624;2022-10-31T09:13:15;119.43;;;51.92;;
55461;SDS011;41327;45.102;20.624;2022-10-31T09:15:42;108.50;;;46.65;;
55461;SDS011;41327;45.102;20.624;2022-10-31T09:18:12;99.57;;;43.63;;
55461;SDS011;41327;45.102;20.624;2022-10-31T09:20:39;99.88;;;40.80;;
55461;SDS011;41327;45.102;20.624;2022-10-31T09:23:07;92.50;;;39.42;;
55461;SDS011;41327;45.102;20.624;2022-10-31T09:25:35;94.20;;;39.38;;
55461;SDS011;41327;45.102;20.624;2022-10-31T09:28:01;86.47;;;37.83;;
55461;SDS011;41327;45.102;20.624;2022-10-31T09:30:28;97.22;;;42.58;;
55461;SDS011;41327;45.102;20.624;2022-10-31T09:32:55;104.68;;;45.72;;
55461;SDS011;41327;45.102;20.624;2022-10-31T09:35:24;99.95;;;44.13;;
55461;SDS011;41327;45.102;20.624;2022-10-31T09:37:56;84.47;;;38.63;;
55461;SDS011;41327;45.102;20.624;2022-10-31T09:40:36;134.48;;;54.92;;
55461;SDS011;41327;45.102;20.624;2022-10-31T09:48:19;120.88;;;49.08;;
55461;SDS011;41327;45.102;20.624;2022-10-31T09:50:55;114.28;;;48.63;;
55461;SDS011;41327;45.102;20.624;2022-10-31T09:53:26;108.63;;;46.80;;
55461;SDS011;41327;45.102;20.624;2022-10-31T09:55:59;116.38;;;48.85;;
55461;SDS011;41327;45.102;20.624;2022-10-31T09:58:28;120.20;;;51.33;;
55461;SDS011;41327;45.102;20.624;2022-10-31T10:00:56;116.57;;;49.92;;
55461;SDS011;41327;45.102;20.624;2022-10-31T10:03:41;115.75;;;49.58;;
55461;SDS011;41327;45.102;20.624;2022-10-31T10:06:17;140.93;;;60.58;;
55461;SDS011;41327;45.102;20.624;2022-10-31T10:08:44;177.85;;;80.07;;
55461;SDS011;41327;45.102;20.624;2022-10-31T10:11:29;193.98;;;85.13;;
55461;SDS011;41327;45.102;20.624;2022-10-31T10:22:02;182.55;;;82.18;;
55461;SDS011;41327;45.102;20.624;2022-10-31T10:24:47;164.80;;;68.70;;
55461;SDS011;41327;45.102;20.624;2022-10-31T10:30:16;198.45;;;90.18;;
55461;SDS011;41327;45.102;20.624;2022-10-31T10:32:44;208.65;;;87.88;;
55461;SDS011;41327;45.102;20.624;2022-10-31T10:37:51;238.02;;;109.63;;
55461;SDS011;41327;45.102;20.624;2022-10-31T10:40:24;247.63;;;114.38;;
55461;SDS011;41327;45.102;20.624;2022-10-31T10:51:57;438.55;;;269.77;;
55461;SDS011;41327;45.102;20.624;2022-10-31T11:00:19;434.02;;;274.05;;
55461;SDS011;41327;45.102;20.624;2022-10-31T11:02:47;367.55;;;203.07;;
55461;SDS011;41327;45.102;20.624;2022-10-31T11:05:23;376.73;;;216.15;;
55461;SDS011;41327;45.102;20.624;2022-10-31T11:08:02;405.45;;;240.40;;
55461;SDS011;41327;45.102;20.624;2022-10-31T11:10:28;388.98;;;221.32;;
55461;SDS011;41327;45.102;20.624;2022-10-31T11:15:37;351.70;;;184.60;;
55461;SDS011;41327;45.102;20.624;2022-10-31T11:18:22;364.20;;;190.30;;
55461;SDS011;41327;45.102;20.624;2022-10-31T11:20:51;205.50;;;95.45;;
55461;SDS011;41327;45.102;20.624;2022-10-31T11:23:19;185.32;;;80.88;;
55461;SDS011;41327;45.102;20.624;2022-10-31T11:25:49;194.90;;;76.57;;
55461;SDS011;41327;45.102;20.624;2022-10-31T11:28:17;120.07;;;54.20;;
55461;SDS011;41327;45.102;20.624;2022-10-31T11:30:44;91.68;;;38.45;;
55461;SDS011;41327;45.102;20.624;2022-10-31T11:35:56;83.15;;;36.30;;
55461;SDS011;41327;45.102;20.624;2022-10-31T11:38:23;72.18;;;32.85;;
55461;SDS011;41327;45.102;20.624;2022-10-31T11:40:54;69.10;;;30.95;;
55461;SDS011;41327;45.102;20.624;2022-10-31T11:43:21;68.28;;;29.05;;
55461;SDS011;41327;45.102;20.624;2022-10-31T11:45:47;62.92;;;28.20;;
55461;SDS011;41327;45.102;20.624;2022-10-31T11:48:16;66.18;;;30.60;;
55461;SDS011;41327;45.102;20.624;2022-10-31T11:50:47;116.55;;;64.50;;
55461;SDS011;41327;45.102;20.624;2022-10-31T11:53:15;81.80;;;41.60;;
55461;SDS011;41327;45.102;20.624;2022-10-31T11:55:42;74.03;;;38.00;;
55461;SDS011;41327;45.102;20.624;2022-10-31T11:58:21;282.10;;;173.25;;
55461;SDS011;41327;45.102;20.624;2022-10-31T12:00:48;191.07;;;103.13;;
55461;SDS011;41327;45.102;20.624;2022-10-31T12:06:12;165.88;;;82.68;;
55461;SDS011;41327;45.102;20.624;2022-10-31T12:08:37;149.40;;;72.72;;
55461;SDS011;41327;45.102;20.624;2022-10-31T12:16:27;149.32;;;68.30;;
55461;SDS011;41327;45.102;20.624;2022-10-31T12:22:09;112.60;;;49.15;;
55461;SDS011;41327;45.102;20.624;2022-10-31T12:28:03;81.70;;;37.10;;
55461;SDS011;41327;45.102;20.624;2022-10-31T12:30:57;66.57;;;30.60;;
55461;SDS011;41327;45.102;20.624;2022-10-31T12:44:48;74.18;;;32.97;;
55461;SDS011;41327;45.102;20.624;2022-10-31T12:47:40;76.72;;;33.45;;
55461;SDS011;41327;45.102;20.624;2022-10-31T12:56:02;74.25;;;31.70;;
55461;SDS011;41327;45.102;20.624;2022-10-31T12:58:34;76.25;;;31.33;;
55461;SDS011;41327;45.102;20.624;2022-10-31T13:03:44;68.05;;;31.80;;
55461;SDS011;41327;45.102;20.624;2022-10-31T13:06:35;68.80;;;31.10;;
55461;SDS011;41327;45.102;20.624;2022-10-31T13:09:08;72.20;;;33.92;;
55461;SDS011;41327;45.102;20.624;2022-10-31T13:11:44;72.70;;;33.38;;
55461;SDS011;41327;45.102;20.624;2022-10-31T13:16:55;74.13;;;35.30;;
55461;SDS011;41327;45.102;20.624;2022-10-31T13:24:23;77.95;;;36.03;;
55461;SDS011;41327;45.102;20.624;2022-10-31T13:26:56;85.00;;;34.22;;
55461;SDS011;41327;45.102;20.624;2022-10-31T13:29:31;83.63;;;35.95;;
55461;SDS011;41327;45.102;20.624;2022-10-31T13:32:05;79.43;;;36.53;;
55461;SDS011;41327;45.102;20.624;2022-10-31T13:34:42;82.93;;;35.53;;
55461;SDS011;41327;45.102;20.624;2022-10-31T13:40:03;76.28;;;35.67;;
55461;SDS011;41327;45.102;20.624;2022-10-31T13:42:53;77.47;;;35.72;;
55461;SDS011;41327;45.102;20.624;2022-10-31T13:45:23;73.45;;;34.17;;
55461;SDS011;41327;45.102;20.624;2022-10-31T13:48:00;75.05;;;35.25;;
55461;SDS011;41327;45.102;20.624;2022-10-31T13:50:42;79.80;;;35.88;;
55461;SDS011;41327;45.102;20.624;2022-10-31T13:53:20;75.28;;;34.92;;
55461;SDS011;41327;45.102;20.624;2022-10-31T13:56:04;71.40;;;34.55;;
55461;SDS011;41327;45.102;20.624;2022-10-31T13:58:32;83.35;;;34.88;;
55461;SDS011;41327;45.102;20.624;2022-10-31T14:00:59;85.60;;;36.78;;
55461;SDS011;41327;45.102;20.624;2022-10-31T14:03:30;73.13;;;33.45;;
55461;SDS011;41327;45.102;20.624;2022-10-31T14:05:56;69.07;;;31.58;;
55461;SDS011;41327;45.102;20.624;2022-10-31T14:08:22;72.38;;;32.97;;
55461;SDS011;41327;45.102;20.624;2022-10-31T14:10:49;83.32;;;34.65;;
55461;SDS011;41327;45.102;20.624;2022-10-31T14:13:49;70.63;;;31.60;;
55461;SDS011;41327;45.102;20.624;2022-10-31T14:18:50;63.97;;;28.70;;
55461;SDS011;41327;45.102;20.624;2022-10-31T14:23:50;61.83;;;28.85;;
55461;SDS011;41327;45.102;20.624;2022-10-31T14:28:50;65.35;;;31.05;;
55461;SDS011;41327;45.102;20.624;2022-10-31T14:31:36;69.45;;;30.40;;
55461;SDS011;41327;45.102;20.624;2022-10-31T14:34:29;69.13;;;32.53;;
55461;SDS011;41327;45.102;20.624;2022-10-31T14:37:08;72.28;;;32.33;;
55461;SDS011;41327;45.102;20.624;2022-10-31T14:39:58;72.10;;;30.35;;
55461;SDS011;41327;45.102;20.624;2022-10-31T14:45:31;69.33;;;30.17;;
55461;SDS011;41327;45.102;20.624;2022-10-31T14:48:19;61.70;;;28.75;;
55461;SDS011;41327;45.102;20.624;2022-10-31T14:50:59;68.85;;;29.85;;
55461;SDS011;41327;45.102;20.624;2022-10-31T14:56:01;88.72;;;38.35;;
55461;SDS011;41327;45.102;20.624;2022-10-31T15:01:18;102.55;;;47.30;;
55461;SDS011;41327;45.102;20.624;2022-10-31T15:03:54;131.50;;;54.90;;
55461;SDS011;41327;45.102;20.624;2022-10-31T15:06:30;138.10;;;59.45;;
55461;SDS011;41327;45.102;20.624;2022-10-31T15:09:20;140.82;;;60.35;;
55461;SDS011;41327;45.102;20.624;2022-10-31T15:11:46;145.50;;;63.83;;
55461;SDS011;41327;45.102;20.624;2022-10-31T15:14:22;148.80;;;63.17;;
55461;SDS011;41327;45.102;20.624;2022-10-31T15:16:49;135.20;;;59.83;;
55461;SDS011;41327;45.102;20.624;2022-10-31T15:19:20;141.98;;;62.80;;
55461;SDS011;41327;45.102;20.624;2022-10-31T15:23:29;161.82;;;71.28;;
55461;SDS011;41327;45.102;20.624;2022-10-31T15:25:59;169.85;;;69.55;;
55461;SDS011;41327;45.102;20.624;2022-10-31T15:28:45;111.05;;;51.45;;
55461;SDS011;41327;45.102;20.624;2022-10-31T15:31:16;114.32;;;55.78;;
55461;SDS011;41327;45.102;20.624;2022-10-31T15:33:42;115.90;;;57.67;;
55461;SDS011;41327;45.102;20.624;2022-10-31T15:36:17;109.13;;;56.20;;
55461;SDS011;41327;45.102;20.624;2022-10-31T15:38:48;75.88;;;36.25;;
55461;SDS011;41327;45.102;20.624;2022-10-31T15:44:24;74.90;;;35.90;;
55461;SDS011;41327;45.102;20.624;2022-10-31T15:46:52;71.00;;;36.88;;
55461;SDS011;41327;45.102;20.624;2022-10-31T15:49:28;66.03;;;34.45;;
55461;SDS011;41327;45.102;20.624;2022-10-31T15:51:57;65.13;;;31.30;;
55461;SDS011;41327;45.102;20.624;2022-10-31T15:54:28;64.70;;;33.40;;
55461;SDS011;41327;45.102;20.624;2022-10-31T15:56:53;67.85;;;35.65;;
55461;SDS011;41327;45.102;20.624;2022-10-31T15:59:21;76.13;;;35.60;;
55461;SDS011;41327;45.102;20.624;2022-10-31T16:02:00;69.05;;;32.65;;
55461;SDS011;41327;45.102;20.624;2022-10-31T16:04:27;60.42;;;32.35;;
55461;SDS011;41327;45.102;20.624;2022-10-31T16:07:10;58.53;;;29.30;;
55461;SDS011;41327;45.102;20.624;2022-10-31T16:09:48;56.20;;;28.70;;
55461;SDS011;41327;45.102;20.624;2022-10-31T16:12:14;53.05;;;25.15;;
55461;SDS011;41327;45.102;20.624;2022-10-31T16:14:41;58.97;;;26.85;;
55461;SDS011;41327;45.102;20.624;2022-10-31T16:17:10;51.85;;;27.15;;
55461;SDS011;41327;45.102;20.624;2022-10-31T16:19:37;57.00;;;28.15;;
55461;SDS011;41327;45.102;20.624;2022-10-31T16:22:12;57.65;;;30.58;;
55461;SDS011;41327;45.102;20.624;2022-10-31T16:27:39;60.08;;;29.98;;
55461;SDS011;41327;45.102;20.624;2022-10-31T16:33:01;50.33;;;26.05;;
55461;SDS011;41327;45.102;20.624;2022-10-31T16:37:59;73.82;;;43.00;;
55461;SDS011;41327;45.102;20.624;2022-10-31T16:40:25;65.78;;;33.88;;